Time;durP1;ratioP1;P1;durP2;ratioP2;P2;SDS_P1;SDS_P2;PMS_P1;PMS_P2;Temp;Humidity;BMP_temperature;BMP_pressure;BME280_temperature;BME280_humidity;BME280_pressure;Samples;Min_cycle;Max_cycle;Signal;HPM_P1;HPM_P2
2021/03/20 00:02:01;;;;;;;3.60;2.53;;;;;;;;;;5116578;28;20673;-64
2021/03/20 00:04:28;;;;;;;2.30;2.10;;;;;;;;;;5116834;28;20292;-64
2021/03/20 00:06:56;;;;;;;5.32;2.55;;;;;;;;;;5116791;28;20192;-64
2021/03/20 00:09:25;;;;;;;3.50;3.10;;;;;;;;;;5116490;28;20287;-64
2021/03/20 00:11:52;;;;;;;5.28;2.75;;;;;;;;;;5116607;28;20196;-64
2021/03/20 00:14:21;;;;;;;2.78;2.55;;;;;;;;;;5116373;28;20224;-64
2021/03/20 00:16:48;;;;;;;3.38;3.15;;;;;;;;;;5116397;28;20232;-64
2021/03/20 00:19:19;;;;;;;3.92;2.80;;;;;;;;;;5116696;28;20260;-64
2021/03/20 00:21:46;;;;;;;3.53;2.78;;;;;;;;;;5116299;28;20216;-64
2021/03/20 00:24:13;;;;;;;3.17;2.78;;;;;;;;;;5116387;28;20364;-65
2021/03/20 00:26:41;;;;;;;2.65;2.45;;;;;;;;;;5116537;28;20193;-64
2021/03/20 00:29:08;;;;;;;3.25;2.95;;;;;;;;;;5116121;28;20329;-64
2021/03/20 00:31:34;;;;;;;3.22;2.90;;;;;;;;;;5116980;28;20278;-64
2021/03/20 00:34:01;;;;;;;3.78;2.92;;;;;;;;;;5115971;28;20228;-64
2021/03/20 00:36:28;;;;;;;3.75;3.45;;;;;;;;;;5116237;28;20284;-64
2021/03/20 00:38:55;;;;;;;5.10;3.20;;;;;;;;;;5115745;28;20265;-64
2021/03/20 00:41:22;;;;;;;5.38;2.72;;;;;;;;;;5115897;28;20232;-64
2021/03/20 00:43:49;;;;;;;3.58;3.28;;;;;;;;;;5116121;28;20201;-64
2021/03/20 00:46:16;;;;;;;3.67;2.88;;;;;;;;;;5116086;28;20227;-64
2021/03/20 00:48:43;;;;;;;3.63;3.33;;;;;;;;;;5115711;28;20197;-65
2021/03/20 00:51:10;;;;;;;2.78;2.58;;;;;;;;;;5115658;28;20712;-64
2021/03/20 00:53:37;;;;;;;13.63;9.48;;;;;;;;;;5115934;28;20192;-64
2021/03/20 00:56:04;;;;;;;15.98;11.38;;;;;;;;;;5115279;28;20714;-64
2021/03/20 00:58:32;;;;;;;21.90;15.30;;;;;;;;;;5116386;28;20216;-64
2021/03/20 01:01:00;;;;;;;6.82;3.60;;;;;;;;;;5116294;28;20279;-65
2021/03/20 01:03:27;;;;;;;5.35;3.15;;;;;;;;;;5115958;28;20224;-65
2021/03/20 01:05:54;;;;;;;3.25;2.42;;;;;;;;;;5115665;28;20663;-64
2021/03/20 01:08:21;;;;;;;3.10;2.90;;;;;;;;;;5115388;28;20284;-64
2021/03/20 01:10:49;;;;;;;4.25;3.10;;;;;;;;;;5116027;28;20672;-64
2021/03/20 01:13:16;;;;;;;4.18;2.95;;;;;;;;;;5115284;28;20689;-64
2021/03/20 01:15:43;;;;;;;2.92;2.58;;;;;;;;;;5115557;28;20292;-64
2021/03/20 01:18:11;;;;;;;2.83;2.63;;;;;;;;;;5115109;28;20231;-63
2021/03/20 01:20:39;;;;;;;2.92;2.72;;;;;;;;;;5115048;28;20721;-64
2021/03/20 01:23:06;;;;;;;4.40;3.00;;;;;;;;;;5116193;28;20283;-64
2021/03/20 01:25:33;;;;;;;5.10;2.75;;;;;;;;;;5115410;28;20614;-64
2021/03/20 01:28:00;;;;;;;3.63;2.85;;;;;;;;;;5114927;28;20710;-64
2021/03/20 01:30:28;;;;;;;6.05;3.13;;;;;;;;;;5115257;28;20283;-64
2021/03/20 01:32:55;;;;;;;3.15;2.45;;;;;;;;;;5114966;28;20231;-64
2021/03/20 01:35:23;;;;;;;2.67;2.47;;;;;;;;;;5115160;28;20232;-63
2021/03/20 01:37:50;;;;;;;2.70;2.50;;;;;;;;;;5115028;28;20666;-64
2021/03/20 01:40:18;;;;;;;4.45;2.40;;;;;;;;;;5114698;28;20756;-64
2021/03/20 01:42:46;;;;;;;4.70;2.90;;;;;;;;;;5114633;28;20197;-63
2021/03/20 01:45:17;;;;;;;5.95;2.38;;;;;;;;;;5114950;28;20287;-66
2021/03/20 01:47:48;;;;;;;4.97;2.85;;;;;;;;;;5115752;28;20217;-65
2021/03/20 01:50:16;;;;;;;5.13;2.50;;;;;;;;;;5114500;28;20283;-63
2021/03/20 01:52:45;;;;;;;2.53;2.33;;;;;;;;;;5114741;28;20222;-63
2021/03/20 01:55:13;;;;;;;2.85;2.65;;;;;;;;;;5114306;28;20284;-63
2021/03/20 01:57:42;;;;;;;2.60;2.40;;;;;;;;;;5114675;28;20662;-63
2021/03/20 02:00:11;;;;;;;18.77;13.75;;;;;;;;;;5114508;28;20220;-63
2021/03/20 02:02:38;;;;;;;5.43;2.92;;;;;;;;;;5114677;28;20279;-63
2021/03/20 02:05:05;;;;;;;3.80;2.67;;;;;;;;;;5114572;28;20235;-63
2021/03/20 02:07:32;;;;;;;5.57;3.00;;;;;;;;;;5114256;28;20192;-65
2021/03/20 02:10:00;;;;;;;2.83;2.55;;;;;;;;;;5114737;28;20287;-63
2021/03/20 02:12:29;;;;;;;2.40;2.20;;;;;;;;;;5114151;28;20279;-63
2021/03/20 02:14:59;;;;;;;3.08;2.58;;;;;;;;;;5114585;28;20224;-64
2021/03/20 02:17:31;;;;;;;2.80;2.60;;;;;;;;;;5114068;28;20268;-64
2021/03/20 02:20:06;;;;;;;5.72;2.78;;;;;;;;;;5113981;28;20204;-64
2021/03/20 02:22:41;;;;;;;2.90;2.70;;;;;;;;;;5114605;28;20263;-65
2021/03/20 02:25:26;;;;;;;2.40;2.20;;;;;;;;;;5115056;28;20695;-64
2021/03/20 02:28:09;;;;;;;3.47;2.45;;;;;;;;;;5114469;28;20280;-64
2021/03/20 02:30:45;;;;;;;3.25;2.92;;;;;;;;;;5113803;28;20185;-65
2021/03/20 02:33:14;;;;;;;3.75;2.63;;;;;;;;;;5114924;28;20283;-64
2021/03/20 02:35:44;;;;;;;4.55;3.08;;;;;;;;;;5114046;28;20291;-64
2021/03/20 02:38:18;;;;;;;11.00;6.63;;;;;;;;;;5114078;28;20235;-64
2021/03/20 02:40:50;;;;;;;3.20;2.90;;;;;;;;;;5113680;28;20251;-64
2021/03/20 02:43:22;;;;;;;5.22;2.40;;;;;;;;;;5114142;28;20264;-64
2021/03/20 02:45:51;;;;;;;6.45;2.88;;;;;;;;;;5114106;28;20267;-64
2021/03/20 02:48:23;;;;;;;4.20;2.60;;;;;;;;;;5113522;28;20192;-64
2021/03/20 02:50:52;;;;;;;5.78;2.83;;;;;;;;;;5114133;28;20680;-64
2021/03/20 02:53:20;;;;;;;3.05;2.60;;;;;;;;;;5113466;28;20279;-64
2021/03/20 02:55:48;;;;;;;4.13;2.70;;;;;;;;;;5113703;28;20228;-64
2021/03/20 02:58:17;;;;;;;4.72;2.85;;;;;;;;;;5114219;28;20312;-64
2021/03/20 03:00:46;;;;;;;3.97;2.55;;;;;;;;;;5113340;28;20796;-64
2021/03/20 03:03:15;;;;;;;3.05;2.50;;;;;;;;;;5113460;28;20283;-65
2021/03/20 03:05:45;;;;;;;6.22;2.75;;;;;;;;;;5113290;28;20288;-64
2021/03/20 03:08:14;;;;;;;3.70;2.65;;;;;;;;;;5113984;28;20386;-65
2021/03/20 03:10:43;;;;;;;4.53;2.83;;;;;;;;;;5113758;28;20615;-64
2021/03/20 03:13:12;;;;;;;4.15;2.63;;;;;;;;;;5113712;28;20275;-65
2021/03/20 03:15:41;;;;;;;5.85;2.53;;;;;;;;;;5113279;28;20241;-63
2021/03/20 03:18:10;;;;;;;2.53;2.33;;;;;;;;;;5113172;28;20664;-64
2021/03/20 03:20:41;;;;;;;8.95;5.20;;;;;;;;;;5113395;28;20307;-63
2021/03/20 03:23:10;;;;;;;4.75;3.00;;;;;;;;;;5113898;28;20301;-64
2021/03/20 03:25:38;;;;;;;6.22;3.88;;;;;;;;;;5113583;28;20594;-64
2021/03/20 03:28:06;;;;;;;7.05;4.18;;;;;;;;;;5113941;28;20279;-64
2021/03/20 03:30:35;;;;;;;2.65;2.40;;;;;;;;;;5113379;28;20239;-64
2021/03/20 03:33:04;;;;;;;2.83;2.30;;;;;;;;;;5113458;28;20226;-64
2021/03/20 03:35:32;;;;;;;3.28;2.40;;;;;;;;;;5116351;28;20292;-63
2021/03/20 03:38:01;;;;;;;4.43;2.72;;;;;;;;;;5117491;28;20232;-64
2021/03/20 03:40:33;;;;;;;6.47;2.60;;;;;;;;;;5117029;28;20303;-63
2021/03/20 03:43:00;;;;;;;3.92;2.72;;;;;;;;;;5116974;28;20645;-63
2021/03/20 03:45:27;;;;;;;5.45;3.25;;;;;;;;;;5116908;28;20196;-63
2021/03/20 03:47:54;;;;;;;4.93;2.75;;;;;;;;;;5116932;28;20228;-63
2021/03/20 03:50:22;;;;;;;9.23;3.55;;;;;;;;;;5116932;28;20286;-65
2021/03/20 03:52:49;;;;;;;4.32;2.95;;;;;;;;;;5117521;28;20251;-64
2021/03/20 03:55:16;;;;;;;4.53;2.75;;;;;;;;;;5116924;28;20717;-64
2021/03/20 03:58:10;;;;;;;5.38;2.67;;;;;;;;;;5116548;28;20315;-65
2021/03/20 04:00:42;;;;;;;5.97;2.97;;;;;;;;;;5092232;28;20578;-64
2021/03/20 04:03:27;;;;;;;7.03;3.13;;;;;;;;;;5117159;28;20214;-64
2021/03/20 04:06:01;;;;;;;2.53;2.30;;;;;;;;;;5116991;28;20673;-64
2021/03/20 04:08:33;;;;;;;3.35;2.78;;;;;;;;;;5117222;28;20267;-64
2021/03/20 04:11:03;;;;;;;3.58;2.90;;;;;;;;;;5117102;28;20618;-63
2021/03/20 04:13:34;;;;;;;3.33;3.03;;;;;;;;;;5117245;28;20275;-64
2021/03/20 04:16:07;;;;;;;3.90;2.85;;;;;;;;;;5117105;28;20214;-64
2021/03/20 04:18:36;;;;;;;2.90;2.67;;;;;;;;;;5116485;28;20268;-64
2021/03/20 04:21:08;;;;;;;4.28;2.78;;;;;;;;;;5117197;28;20235;-63
2021/03/20 04:23:36;;;;;;;9.93;3.40;;;;;;;;;;5116808;28;20583;-64
2021/03/20 04:26:05;;;;;;;4.72;2.53;;;;;;;;;;5116599;28;20279;-63
2021/03/20 04:28:38;;;;;;;10.23;3.05;;;;;;;;;;5116291;28;20228;-63
2021/03/20 04:31:10;;;;;;;3.30;2.83;;;;;;;;;;5116287;28;20269;-65
2021/03/20 04:33:39;;;;;;;6.43;3.17;;;;;;;;;;5116297;28;20184;-63
2021/03/20 04:36:08;;;;;;;5.30;2.55;;;;;;;;;;5116858;28;20353;-63
2021/03/20 04:38:35;;;;;;;5.93;2.90;;;;;;;;;;5116066;28;20287;-64
2021/03/20 04:41:04;;;;;;;3.45;2.95;;;;;;;;;;5116286;28;20662;-64
2021/03/20 04:43:33;;;;;;;6.47;3.78;;;;;;;;;;5116341;28;20279;-63
2021/03/20 04:46:01;;;;;;;3.13;2.85;;;;;;;;;;5115298;28;20228;-64
2021/03/20 04:48:30;;;;;;;3.38;2.83;;;;;;;;;;5115912;28;20694;-64
2021/03/20 04:50:58;;;;;;;5.05;3.28;;;;;;;;;;5116135;28;20247;-64
2021/03/20 04:53:25;;;;;;;3.70;2.90;;;;;;;;;;5115846;28;20235;-63
2021/03/20 04:55:56;;;;;;;3.50;3.20;;;;;;;;;;5115819;28;20653;-64
2021/03/20 04:58:31;;;;;;;2.60;2.40;;;;;;;;;;5115803;28;20339;-64
2021/03/20 05:01:02;;;;;;;4.20;3.55;;;;;;;;;;5115976;28;20212;-64
2021/03/20 05:03:32;;;;;;;6.97;2.85;;;;;;;;;;5115696;28;20277;-64
2021/03/20 05:06:01;;;;;;;6.63;2.88;;;;;;;;;;5115678;28;20642;-65
2021/03/20 05:08:31;;;;;;;3.75;3.08;;;;;;;;;;5115584;28;20280;-64
2021/03/20 05:10:59;;;;;;;6.13;3.15;;;;;;;;;;5115871;28;20312;-65
2021/03/20 05:13:32;;;;;;;3.65;2.70;;;;;;;;;;5115737;28;20220;-64
2021/03/20 05:16:01;;;;;;;5.10;2.70;;;;;;;;;;5116042;28;20590;-64
2021/03/20 05:18:27;;;;;;;4.35;3.17;;;;;;;;;;5115287;28;20661;-64
2021/03/20 05:20:55;;;;;;;3.97;3.10;;;;;;;;;;5115138;28;20315;-64
2021/03/20 05:23:22;;;;;;;5.43;4.85;;;;;;;;;;5115238;28;20705;-63
2021/03/20 05:25:48;;;;;;;4.53;3.08;;;;;;;;;;5115344;28;20286;-64
2021/03/20 05:28:15;;;;;;;5.28;3.90;;;;;;;;;;5115437;28;20284;-64
2021/03/20 05:30:42;;;;;;;4.07;3.30;;;;;;;;;;5115089;28;20293;-64
2021/03/20 05:33:11;;;;;;;5.05;2.97;;;;;;;;;;5115012;28;20287;-65
2021/03/20 05:35:38;;;;;;;4.30;2.38;;;;;;;;;;5114961;28;20670;-65
2021/03/20 05:38:05;;;;;;;4.00;3.58;;;;;;;;;;5115252;28;20279;-64
2021/03/20 05:40:34;;;;;;;6.65;3.53;;;;;;;;;;5114859;28;20746;-64
2021/03/20 05:43:08;;;;;;;3.50;3.17;;;;;;;;;;5114794;28;20288;-66
2021/03/20 05:45:37;;;;;;;4.15;3.15;;;;;;;;;;5115823;28;20272;-68
2021/03/20 05:48:08;;;;;;;3.38;3.08;;;;;;;;;;5115045;28;20275;-65
2021/03/20 05:50:37;;;;;;;3.35;3.05;;;;;;;;;;5114760;28;20231;-65
2021/03/20 05:53:19;;;;;;;3.08;2.78;;;;;;;;;;5114888;28;20204;-64
2021/03/20 05:55:48;;;;;;;7.47;3.40;;;;;;;;;;5114402;28;20188;-64
2021/03/20 05:58:21;;;;;;;5.93;3.38;;;;;;;;;;5114363;28;20323;-64
2021/03/20 06:00:51;;;;;;;3.80;3.15;;;;;;;;;;5112802;28;20196;-64
2021/03/20 06:03:35;;;;;;;5.80;2.90;;;;;;;;;;5114683;28;20272;-64
2021/03/20 06:06:05;;;;;;;3.42;3.08;;;;;;;;;;5104443;28;20287;-64
2021/03/20 06:08:39;;;;;;;5.03;3.05;;;;;;;;;;5113755;28;20204;-64
2021/03/20 06:11:12;;;;;;;3.95;3.40;;;;;;;;;;5114250;28;20217;-64
2021/03/20 06:13:49;;;;;;;3.28;2.97;;;;;;;;;;5114247;28;20267;-64
2021/03/20 06:16:23;;;;;;;5.45;3.35;;;;;;;;;;5114395;28;20176;-63
2021/03/20 06:18:58;;;;;;;6.32;4.15;;;;;;;;;;5113993;28;20271;-64
2021/03/20 06:21:29;;;;;;;9.25;3.83;;;;;;;;;;5113802;28;20648;-63
2021/03/20 06:24:22;;;;;;;5.65;3.25;;;;;;;;;;5114462;28;20616;-64
2021/03/20 06:26:49;;;;;;;8.45;3.58;;;;;;;;;;5114031;28;20282;-63
2021/03/20 06:29:17;;;;;;;3.33;3.03;;;;;;;;;;5114212;28;20300;-63
2021/03/20 06:31:46;;;;;;;8.93;3.38;;;;;;;;;;5112373;28;20284;-63
2021/03/20 06:34:16;;;;;;;3.90;3.33;;;;;;;;;;5113225;28;20231;-63
2021/03/20 06:36:44;;;;;;;6.50;3.10;;;;;;;;;;5113015;28;20283;-63
2021/03/20 06:39:16;;;;;;;4.68;3.20;;;;;;;;;;5113493;28;20219;-63
2021/03/20 06:41:46;;;;;;;3.47;2.70;;;;;;;;;;5113505;28;20193;-63
2021/03/20 06:44:18;;;;;;;3.88;3.15;;;;;;;;;;5112617;28;20232;-63
2021/03/20 06:46:45;;;;;;;5.82;3.00;;;;;;;;;;5112792;28;20207;-64
2021/03/20 06:49:22;;;;;;;7.13;3.38;;;;;;;;;;5113314;28;20287;-65
2021/03/20 06:51:49;;;;;;;3.53;3.13;;;;;;;;;;5113804;28;20288;-65
2021/03/20 06:54:17;;;;;;;6.45;3.45;;;;;;;;;;5113596;28;20610;-65
2021/03/20 06:56:45;;;;;;;6.65;3.40;;;;;;;;;;5113265;28;20220;-64
2021/03/20 06:59:12;;;;;;;5.10;3.13;;;;;;;;;;5113123;28;20540;-64
2021/03/20 07:01:48;;;;;;;8.40;3.22;;;;;;;;;;5113791;28;20276;-64
2021/03/20 07:04:30;;;;;;;4.85;3.22;;;;;;;;;;5112332;28;20224;-64
2021/03/20 07:07:11;;;;;;;6.05;3.53;;;;;;;;;;5113664;28;20654;-64
2021/03/20 07:09:40;;;;;;;5.60;3.55;;;;;;;;;;5110909;28;20284;-65
2021/03/20 07:12:09;;;;;;;9.68;3.58;;;;;;;;;;5113308;28;20749;-64
2021/03/20 07:14:38;;;;;;;7.03;3.33;;;;;;;;;;5113374;28;20197;-63
2021/03/20 07:17:06;;;;;;;7.35;4.45;;;;;;;;;;5113576;28;20196;-63
2021/03/20 07:19:33;;;;;;;4.65;3.05;;;;;;;;;;5113222;28;20331;-63
2021/03/20 07:22:05;;;;;;;8.48;3.30;;;;;;;;;;5113332;28;20625;-64
2021/03/20 07:24:34;;;;;;;10.48;3.22;;;;;;;;;;5113465;28;20284;-63
2021/03/20 07:27:03;;;;;;;5.60;3.40;;;;;;;;;;5113752;28;20232;-63
2021/03/20 07:29:42;;;;;;;5.40;3.83;;;;;;;;;;5112743;28;20293;-63
2021/03/20 07:32:09;;;;;;;4.97;3.97;;;;;;;;;;5113534;28;20285;-63
2021/03/20 07:34:36;;;;;;;5.82;3.80;;;;;;;;;;5111270;28;20232;-64
2021/03/20 07:37:05;;;;;;;16.90;5.53;;;;;;;;;;5112861;28;20612;-64
2021/03/20 07:39:38;;;;;;;13.48;4.82;;;;;;;;;;5112929;28;20208;-64
2021/03/20 07:42:06;;;;;;;9.93;4.15;;;;;;;;;;5113409;28;20235;-64
2021/03/20 07:44:49;;;;;;;15.05;4.72;;;;;;;;;;5112687;28;20201;-64
2021/03/20 07:47:16;;;;;;;7.22;3.63;;;;;;;;;;5113012;28;20185;-63
2021/03/20 07:49:43;;;;;;;11.10;4.38;;;;;;;;;;5113043;28;20292;-65
2021/03/20 07:52:21;;;;;;;10.02;4.43;;;;;;;;;;5113313;28;20240;-64
2021/03/20 07:54:48;;;;;;;8.50;3.85;;;;;;;;;;5113324;28;20226;-64
2021/03/20 07:57:16;;;;;;;6.97;3.85;;;;;;;;;;5113173;28;20311;-66
2021/03/20 07:59:45;;;;;;;4.88;3.20;;;;;;;;;;5112880;28;20304;-68
2021/03/20 08:02:14;;;;;;;8.55;3.90;;;;;;;;;;5112960;28;20192;-64
2021/03/20 08:04:50;;;;;;;7.38;3.35;;;;;;;;;;5113235;28;20203;-67
2021/03/20 08:07:28;;;;;;;4.78;3.35;;;;;;;;;;5113084;28;20197;-67
2021/03/20 08:10:06;;;;;;;9.82;4.20;;;;;;;;;;5113453;28;20266;-66
2021/03/20 08:12:33;;;;;;;13.32;3.85;;;;;;;;;;5112816;28;20273;-66
2021/03/20 08:15:02;;;;;;;4.85;3.72;;;;;;;;;;5113176;28;20225;-66
2021/03/20 08:17:30;;;;;;;3.92;3.30;;;;;;;;;;5112792;28;20240;-66
2021/03/20 08:19:57;;;;;;;5.43;3.60;;;;;;;;;;5113118;28;20303;-66
2021/03/20 08:22:39;;;;;;;4.03;3.63;;;;;;;;;;5116273;28;20236;-66
2021/03/20 08:25:21;;;;;;;5.25;3.17;;;;;;;;;;5114864;28;20315;-67
2021/03/20 08:27:53;;;;;;;4.85;2.90;;;;;;;;;;5116879;28;20288;-65
2021/03/20 08:30:37;;;;;;;3.20;2.88;;;;;;;;;;5116360;28;20188;-66
2021/03/20 08:33:14;;;;;;;10.65;4.38;;;;;;;;;;5116285;28;20276;-66
2021/03/20 08:35:45;;;;;;;5.75;3.28;;;;;;;;;;5116585;27;20225;-65
2021/03/20 08:38:26;;;;;;;5.47;3.25;;;;;;;;;;5116202;28;20269;-66
2021/03/20 08:40:55;;;;;;;5.90;3.47;;;;;;;;;;5117196;28;20311;-66
2021/03/20 08:43:30;;;;;;;5.63;3.45;;;;;;;;;;5116831;28;20197;-66
2021/03/20 08:45:58;;;;;;;6.40;3.70;;;;;;;;;;5115978;28;20272;-66
2021/03/20 08:48:34;;;;;;;4.60;3.60;;;;;;;;;;5116600;28;20280;-66
2021/03/20 08:51:12;;;;;;;6.15;3.95;;;;;;;;;;5116570;28;20632;-66
2021/03/20 08:53:44;;;;;;;5.38;3.80;;;;;;;;;;5116702;28;20634;-66
2021/03/20 08:56:17;;;;;;;10.55;3.53;;;;;;;;;;5116443;28;20224;-66
2021/03/20 08:58:52;;;;;;;5.13;2.92;;;;;;;;;;5115996;28;20673;-66
2021/03/20 09:01:27;;;;;;;5.15;3.05;;;;;;;;;;5115990;28;20214;-66
2021/03/20 09:03:56;;;;;;;12.55;3.85;;;;;;;;;;5115686;28;20359;-66
2021/03/20 09:06:25;;;;;;;9.30;3.22;;;;;;;;;;5115952;28;20296;-66
2021/03/20 09:08:55;;;;;;;4.70;3.60;;;;;;;;;;5115609;28;20738;-66
2021/03/20 09:11:35;;;;;;;6.63;3.92;;;;;;;;;;5115853;28;20200;-66
2021/03/20 09:14:04;;;;;;;6.10;3.25;;;;;;;;;;5116143;28;20272;-65
2021/03/20 09:16:34;;;;;;;8.45;2.90;;;;;;;;;;5116072;28;20224;-65
2021/03/20 09:19:03;;;;;;;3.22;2.90;;;;;;;;;;5116053;28;20181;-66
2021/03/20 09:21:30;;;;;;;5.43;2.90;;;;;;;;;;5115632;27;20305;-66
2021/03/20 09:23:57;;;;;;;5.50;2.75;;;;;;;;;;5115513;28;20280;-65
2021/03/20 09:26:38;;;;;;;4.07;2.40;;;;;;;;;;5113078;28;20249;-66
2021/03/20 09:29:06;;;;;;;7.85;3.55;;;;;;;;;;5114776;28;20196;-66
2021/03/20 09:31:54;;;;;;;4.43;2.78;;;;;;;;;;5115022;28;20601;-66
2021/03/20 09:34:27;;;;;;;2.50;2.30;;;;;;;;;;5109935;28;20631;-66
2021/03/20 09:36:54;;;;;;;3.38;3.08;;;;;;;;;;5114686;28;20181;-66
2021/03/20 09:39:37;;;;;;;4.40;2.30;;;;;;;;;;5114833;28;20292;-66
2021/03/20 09:42:04;;;;;;;4.85;3.03;;;;;;;;;;5114741;28;20228;-66
2021/03/20 09:44:33;;;;;;;5.45;2.60;;;;;;;;;;5114960;28;20330;-66
2021/03/20 09:47:00;;;;;;;7.55;3.05;;;;;;;;;;5114123;28;20250;-67
2021/03/20 09:49:38;;;;;;;4.05;3.10;;;;;;;;;;5114944;28;20224;-66
2021/03/20 09:52:07;;;;;;;6.13;2.95;;;;;;;;;;5114487;28;20663;-67
2021/03/20 09:54:42;;;;;;;3.55;2.50;;;;;;;;;;5113049;27;20721;-64
2021/03/20 09:57:28;;;;;;;4.22;2.97;;;;;;;;;;5093302;28;20225;-65
2021/03/20 09:59:55;;;;;;;3.50;3.00;;;;;;;;;;5093835;28;20309;-65
2021/03/20 10:02:34;;;;;;;6.60;3.10;;;;;;;;;;5094409;28;20189;-66
2021/03/20 10:05:04;;;;;;;5.03;3.00;;;;;;;;;;5093916;28;20715;-66
2021/03/20 10:07:32;;;;;;;6.78;3.33;;;;;;;;;;5093636;28;20189;-66
2021/03/20 10:10:29;;;;;;;5.63;3.20;;;;;;;;;;5093892;28;20205;-66
2021/03/20 10:12:57;;;;;;;4.15;3.00;;;;;;;;;;5093880;28;20221;-67
2021/03/20 10:15:31;;;;;;;5.90;3.15;;;;;;;;;;5094012;28;20232;-66
2021/03/20 10:18:14;;;;;;;5.78;2.95;;;;;;;;;;5093803;28;20184;-66
2021/03/20 10:20:43;;;;;;;4.80;3.38;;;;;;;;;;5093054;28;20596;-67
2021/03/20 10:23:14;;;;;;;4.15;2.88;;;;;;;;;;5093687;28;20278;-66
2021/03/20 10:25:46;;;;;;;3.92;3.25;;;;;;;;;;5101011;28;20286;-65
2021/03/20 10:28:15;;;;;;;5.22;3.20;;;;;;;;;;5113436;28;20193;-64
2021/03/20 10:30:41;;;;;;;3.50;3.20;;;;;;;;;;5113815;28;20197;-65
2021/03/20 10:33:23;;;;;;;8.00;3.22;;;;;;;;;;5113777;28;20219;-65
2021/03/20 10:35:50;;;;;;;4.00;3.47;;;;;;;;;;5113947;28;20593;-66
2021/03/20 10:38:18;;;;;;;5.03;3.20;;;;;;;;;;5113327;28;20193;-66
2021/03/20 10:40:44;;;;;;;6.03;3.70;;;;;;;;;;5113504;28;20224;-65
2021/03/20 10:43:13;;;;;;;3.22;3.03;;;;;;;;;;5114513;28;20222;-65
2021/03/20 10:45:41;;;;;;;5.38;3.30;;;;;;;;;;5113238;28;20322;-66
2021/03/20 10:48:18;;;;;;;4.28;3.25;;;;;;;;;;5113241;28;20283;-66
2021/03/20 10:50:45;;;;;;;6.47;3.42;;;;;;;;;;5113566;28;20224;-67
2021/03/20 10:53:17;;;;;;;4.13;2.92;;;;;;;;;;5113912;28;20615;-65
2021/03/20 10:55:46;;;;;;;3.90;3.03;;;;;;;;;;5111785;28;20212;-65
2021/03/20 10:58:16;;;;;;;5.18;3.22;;;;;;;;;;5111432;28;20758;-66
2021/03/20 11:00:44;;;;;;;3.58;3.00;;;;;;;;;;5113550;28;20216;-66
2021/03/20 11:03:12;;;;;;;4.65;3.88;;;;;;;;;;5113194;28;20681;-67
2021/03/20 11:05:40;;;;;;;2.80;2.60;;;;;;;;;;5113248;28;20193;-66
2021/03/20 11:08:12;;;;;;;3.88;2.75;;;;;;;;;;5113228;28;20193;-65
2021/03/20 11:10:42;;;;;;;3.97;3.00;;;;;;;;;;5113595;28;20267;-65
2021/03/20 11:13:10;;;;;;;3.25;2.95;;;;;;;;;;5114031;28;20275;-65
2021/03/20 11:15:38;;;;;;;5.63;3.58;;;;;;;;;;5113374;28;20318;-65
2021/03/20 11:18:08;;;;;;;3.50;3.22;;;;;;;;;;5113179;28;20212;-66
2021/03/20 11:20:36;;;;;;;4.40;3.22;;;;;;;;;;5113121;28;20249;-65
2021/03/20 11:23:04;;;;;;;4.88;3.78;;;;;;;;;;5113638;28;20232;-66
2021/03/20 11:25:33;;;;;;;3.40;2.97;;;;;;;;;;5113173;28;20197;-65
2021/03/20 11:28:01;;;;;;;5.63;4.90;;;;;;;;;;5111586;28;20200;-65
2021/03/20 11:30:31;;;;;;;5.13;3.00;;;;;;;;;;5113300;28;20602;-65
2021/03/20 11:33:00;;;;;;;3.95;3.45;;;;;;;;;;5113215;28;20280;-65
2021/03/20 11:35:28;;;;;;;3.42;2.88;;;;;;;;;;5113006;28;20289;-65
2021/03/20 11:37:59;;;;;;;4.15;3.30;;;;;;;;;;5112991;28;20619;-65
2021/03/20 11:40:27;;;;;;;4.72;3.55;;;;;;;;;;5113432;28;20241;-66
2021/03/20 11:42:55;;;;;;;4.30;3.15;;;;;;;;;;5113303;28;20303;-65
2021/03/20 11:45:26;;;;;;;4.15;3.15;;;;;;;;;;5112994;28;20239;-65
2021/03/20 11:47:54;;;;;;;3.47;3.17;;;;;;;;;;5112591;28;20246;-65
2021/03/20 11:50:23;;;;;;;4.20;3.00;;;;;;;;;;5112856;28;20244;-66
2021/03/20 11:52:51;;;;;;;4.90;3.40;;;;;;;;;;5113052;28;20287;-65
2021/03/20 11:55:19;;;;;;;5.68;3.65;;;;;;;;;;5113018;28;20253;-66
2021/03/20 11:57:46;;;;;;;4.20;3.80;;;;;;;;;;5114957;27;20248;-65
2021/03/20 12:00:34;;;;;;;6.47;4.50;;;;;;;;;;5095505;28;20333;-65
2021/03/20 12:03:01;;;;;;;3.45;3.15;;;;;;;;;;5096758;28;20186;-64
2021/03/20 12:05:30;;;;;;;5.97;3.45;;;;;;;;;;5096066;28;20202;-65
2021/03/20 12:08:13;;;;;;;4.28;3.55;;;;;;;;;;5096726;28;20194;-64
2021/03/20 12:10:53;;;;;;;4.03;3.65;;;;;;;;;;5096412;28;20709;-65
2021/03/20 12:13:35;;;;;;;12.35;6.88;;;;;;;;;;5096107;28;20213;-65
2021/03/20 12:16:03;;;;;;;3.78;3.38;;;;;;;;;;5095969;28;20675;-65
2021/03/20 12:18:30;;;;;;;13.98;6.50;;;;;;;;;;5095754;28;20247;-65
2021/03/20 12:21:04;;;;;;;4.30;3.90;;;;;;;;;;5096379;28;20309;-67
2021/03/20 12:23:32;;;;;;;4.38;3.70;;;;;;;;;;5096039;28;20271;-66
2021/03/20 12:26:00;;;;;;;6.50;3.42;;;;;;;;;;5096095;28;20194;-65
2021/03/20 12:28:34;;;;;;;4.20;3.42;;;;;;;;;;5099915;28;20276;-67
2021/03/20 12:31:23;;;;;;;3.92;3.50;;;;;;;;;;5095256;28;20229;-68
2021/03/20 12:33:51;;;;;;;3.80;3.40;;;;;;;;;;5092733;28;20200;-68
2021/03/20 12:36:25;;;;;;;3.72;3.42;;;;;;;;;;5095486;28;20668;-68
2021/03/20 12:38:52;;;;;;;4.00;3.45;;;;;;;;;;5095956;28;20477;-70
2021/03/20 12:41:20;;;;;;;3.38;3.00;;;;;;;;;;5095332;28;20698;-65
2021/03/20 12:44:01;;;;;;;4.13;3.83;;;;;;;;;;5095605;28;20601;-65
2021/03/20 12:46:28;;;;;;;4.40;4.05;;;;;;;;;;5095542;28;20276;-67
2021/03/20 12:48:56;;;;;;;4.68;3.90;;;;;;;;;;5094323;28;20244;-64
2021/03/20 12:51:24;;;;;;;4.68;4.20;;;;;;;;;;5095233;28;20298;-65
2021/03/20 12:53:51;;;;;;;5.18;3.83;;;;;;;;;;5094642;28;20205;-66
2021/03/20 12:56:18;;;;;;;3.85;3.45;;;;;;;;;;5094974;28;20547;-65
2021/03/20 12:58:45;;;;;;;5.63;4.05;;;;;;;;;;5098019;28;20191;-64
2021/03/20 13:01:12;;;;;;;3.67;3.05;;;;;;;;;;5114353;28;20222;-66
2021/03/20 13:03:38;;;;;;;3.75;3.45;;;;;;;;;;5114974;28;20193;-65
2021/03/20 13:06:06;;;;;;;5.57;3.75;;;;;;;;;;5115759;28;20202;-66
2021/03/20 13:08:36;;;;;;;4.78;3.25;;;;;;;;;;5115074;28;20198;-66
2021/03/20 13:11:03;;;;;;;4.93;3.22;;;;;;;;;;5115189;28;20201;-65
2021/03/20 13:13:29;;;;;;;4.40;3.85;;;;;;;;;;5114983;28;20288;-65
2021/03/20 13:15:56;;;;;;;4.53;3.92;;;;;;;;;;5115211;28;20226;-65
2021/03/20 13:18:23;;;;;;;4.47;3.42;;;;;;;;;;5115549;28;20193;-65
2021/03/20 13:20:50;;;;;;;5.07;4.30;;;;;;;;;;5115142;28;20252;-65
2021/03/20 13:23:18;;;;;;;7.10;3.50;;;;;;;;;;5114951;28;20193;-64
2021/03/20 13:25:45;;;;;;;7.65;4.13;;;;;;;;;;5114878;28;20321;-65
2021/03/20 13:28:13;;;;;;;4.43;3.55;;;;;;;;;;5115047;27;20726;-65
2021/03/20 13:30:41;;;;;;;4.13;3.63;;;;;;;;;;5114832;28;20280;-66
2021/03/20 13:33:08;;;;;;;6.35;4.30;;;;;;;;;;5113644;28;20281;-66
2021/03/20 13:35:37;;;;;;;6.63;3.50;;;;;;;;;;5114519;28;20233;-64
2021/03/20 13:38:04;;;;;;;4.80;4.22;;;;;;;;;;5114811;28;20289;-65
2021/03/20 13:40:32;;;;;;;7.68;4.03;;;;;;;;;;5114487;27;20271;-64
2021/03/20 13:42:59;;;;;;;5.72;4.22;;;;;;;;;;5114986;28;20197;-66
2021/03/20 13:45:27;;;;;;;5.93;4.25;;;;;;;;;;5114904;28;20286;-68
2021/03/20 13:47:54;;;;;;;4.05;3.50;;;;;;;;;;5114634;28;20485;-71
2021/03/20 13:50:22;;;;;;;5.15;4.28;;;;;;;;;;5114162;28;20288;-71
2021/03/20 13:52:48;;;;;;;6.82;4.40;;;;;;;;;;5114820;28;20278;-70
2021/03/20 13:55:15;;;;;;;6.10;4.05;;;;;;;;;;5114966;28;20207;-72
2021/03/20 13:57:43;;;;;;;5.55;4.30;;;;;;;;;;5114397;28;20632;-71
2021/03/20 14:00:11;;;;;;;6.65;3.70;;;;;;;;;;5114486;28;20579;-72
2021/03/20 14:02:37;;;;;;;11.00;8.02;;;;;;;;;;5114495;28;20194;-69
2021/03/20 14:05:04;;;;;;;9.88;7.00;;;;;;;;;;5111962;28;20225;-69
2021/03/20 14:07:33;;;;;;;5.28;4.78;;;;;;;;;;5114037;28;20536;-69
2021/03/20 14:10:00;;;;;;;4.43;3.75;;;;;;;;;;5114242;28;20197;-69
2021/03/20 14:12:27;;;;;;;6.32;4.82;;;;;;;;;;5114472;28;20190;-69
2021/03/20 14:14:55;;;;;;;6.07;4.00;;;;;;;;;;5113834;28;20592;-70
2021/03/20 14:17:23;;;;;;;5.30;4.80;;;;;;;;;;5114260;28;20288;-69
2021/03/20 14:19:50;;;;;;;7.18;4.85;;;;;;;;;;5113445;28;20559;-71
2021/03/20 14:22:17;;;;;;;4.60;4.20;;;;;;;;;;5114275;28;20285;-70
2021/03/20 14:24:43;;;;;;;4.68;4.28;;;;;;;;;;5114160;28;20627;-67
2021/03/20 14:27:11;;;;;;;4.85;3.72;;;;;;;;;;5113747;28;20220;-70
2021/03/20 14:29:38;;;;;;;5.28;4.40;;;;;;;;;;5114009;28;20284;-71
2021/03/20 14:32:06;;;;;;;8.15;3.90;;;;;;;;;;5113868;28;20248;-70
2021/03/20 14:34:33;;;;;;;4.80;4.40;;;;;;;;;;5113726;28;20194;-69
2021/03/20 14:37:00;;;;;;;4.88;4.40;;;;;;;;;;5112311;28;20201;-69
2021/03/20 14:39:27;;;;;;;3.70;2.90;;;;;;;;;;5112952;28;20230;-70
2021/03/20 14:41:54;;;;;;;5.32;4.82;;;;;;;;;;5114145;28;20303;-70
2021/03/20 14:44:20;;;;;;;4.30;3.90;;;;;;;;;;5113277;28;20726;-70
2021/03/20 14:46:47;;;;;;;4.50;3.65;;;;;;;;;;5113804;28;20195;-69
2021/03/20 14:49:17;;;;;;;4.72;4.10;;;;;;;;;;5113643;28;20232;-69
2021/03/20 14:51:43;;;;;;;6.68;4.70;;;;;;;;;;5113422;28;20285;-70
2021/03/20 14:54:10;;;;;;;5.35;4.82;;;;;;;;;;5113358;28;20222;-70
2021/03/20 14:56:38;;;;;;;5.50;4.72;;;;;;;;;;5113634;28;20281;-69
2021/03/20 14:59:05;;;;;;;5.07;4.10;;;;;;;;;;5114172;28;20706;-70
2021/03/20 15:01:32;;;;;;;5.20;4.70;;;;;;;;;;5113088;28;20700;-69